Terminal Aerodrome Forecast
Issued by NWS

Current Version | Previous Version | Text Only | Print | Product List | Glossary On
Versions: 1 2 3 4 5 6 7 8 9 10 11 12 13 14 15 16 17
000
FTUS42 TJSJ 282344
TAFIST
TAF
TIST 282344Z 2900/2924 12009KT P6SM SCT100
     FM291330 13010KT P6SM SCT025 BKN050
     FM292300 09008KT P6SM FEW025 SCT100=

USA.gov is the U.S. government's official web portal to all federal, state and local government web resources and services.